sensor_id;sensor_type;location;lat;lon;timestamp;pressure;altitude;pressure_sealevel;temperature;humidity
4022;BME280;2025;48.260;16.432;2023-04-07T00:01:53;99927.00;;;4.63;46.86
4022;BME280;2025;48.260;16.432;2023-04-07T00:04:20;99925.69;;;4.69;46.49
4022;BME280;2025;48.260;16.432;2023-04-07T00:06:47;99926.13;;;4.74;46.26
4022;BME280;2025;48.260;16.432;2023-04-07T00:09:14;99924.34;;;4.75;46.30
4022;BME280;2025;48.260;16.432;2023-04-07T00:11:42;99924.72;;;4.70;46.41
4022;BME280;2025;48.260;16.432;2023-04-07T00:14:09;99930.75;;;4.71;46.58
4022;BME280;2025;48.260;16.432;2023-04-07T00:16:36;99927.22;;;4.72;47.39
4022;BME280;2025;48.260;16.432;2023-04-07T00:19:03;99923.88;;;4.70;46.48
4022;BME280;2025;48.260;16.432;2023-04-07T00:21:30;99916.19;;;4.68;46.44
4022;BME280;2025;48.260;16.432;2023-04-07T00:23:57;99919.13;;;4.75;46.51
4022;BME280;2025;48.260;16.432;2023-04-07T00:26:24;99917.72;;;4.71;46.37
4022;BME280;2025;48.260;16.432;2023-04-07T00:28:57;99919.50;;;4.70;46.73
4022;BME280;2025;48.260;16.432;2023-04-07T00:31:24;99920.31;;;4.71;45.97
4022;BME280;2025;48.260;16.432;2023-04-07T00:33:51;99926.06;;;4.64;47.26
4022;BME280;2025;48.260;16.432;2023-04-07T00:36:18;99919.66;;;4.69;46.18
4022;BME280;2025;48.260;16.432;2023-04-07T00:38:45;99915.47;;;4.66;46.83
4022;BME280;2025;48.260;16.432;2023-04-07T00:41:12;99917.41;;;4.64;46.89
4022;BME280;2025;48.260;16.432;2023-04-07T00:43:39;99918.34;;;4.63;46.93
4022;BME280;2025;48.260;16.432;2023-04-07T00:46:07;99908.50;;;4.67;46.27
4022;BME280;2025;48.260;16.432;2023-04-07T00:48:35;99917.97;;;4.68;46.50
4022;BME280;2025;48.260;16.432;2023-04-07T00:51:03;99908.41;;;4.57;47.45
4022;BME280;2025;48.260;16.432;2023-04-07T00:53:30;99902.00;;;4.61;46.51
4022;BME280;2025;48.260;16.432;2023-04-07T00:55:57;99906.50;;;4.59;46.22
4022;BME280;2025;48.260;16.432;2023-04-07T00:58:24;99910.25;;;4.66;46.25
4022;BME280;2025;48.260;16.432;2023-04-07T01:00:57;99901.66;;;4.54;46.53
4022;BME280;2025;48.260;16.432;2023-04-07T01:03:34;99900.84;;;4.54;46.32
4022;BME280;2025;48.260;16.432;2023-04-07T01:06:05;99896.59;;;4.53;46.88
4022;BME280;2025;48.260;16.432;2023-04-07T01:08:37;99894.00;;;4.53;47.25
4022;BME280;2025;48.260;16.432;2023-04-07T01:11:12;99893.22;;;4.41;47.21
4022;BME280;2025;48.260;16.432;2023-04-07T01:13:41;99890.34;;;4.44;46.54
4022;BME280;2025;48.260;16.432;2023-04-07T01:16:12;99890.63;;;4.41;46.95
4022;BME280;2025;48.260;16.432;2023-04-07T01:18:44;99888.25;;;4.38;46.91
4022;BME280;2025;48.260;16.432;2023-04-07T01:21:14;99882.22;;;4.37;47.38
4022;BME280;2025;48.260;16.432;2023-04-07T01:24:04;99883.88;;;4.38;47.46
4022;BME280;2025;48.260;16.432;2023-04-07T01:26:38;99884.38;;;4.32;47.30
4022;BME280;2025;48.260;16.432;2023-04-07T01:32:09;99872.97;;;4.33;47.28
4022;BME280;2025;48.260;16.432;2023-04-07T01:34:37;99876.44;;;4.34;47.26
4022;BME280;2025;48.260;16.432;2023-04-07T01:37:07;99867.09;;;4.31;47.37
4022;BME280;2025;48.260;16.432;2023-04-07T01:39:34;99869.44;;;4.34;47.34
4022;BME280;2025;48.260;16.432;2023-04-07T01:42:03;99866.00;;;4.34;47.17
4022;BME280;2025;48.260;16.432;2023-04-07T01:44:31;99876.56;;;4.32;47.53
4022;BME280;2025;48.260;16.432;2023-04-07T01:46:59;99877.75;;;4.28;47.22
4022;BME280;2025;48.260;16.432;2023-04-07T01:49:29;99876.16;;;4.37;46.65
4022;BME280;2025;48.260;16.432;2023-04-07T01:51:57;99875.09;;;4.39;46.60
4022;BME280;2025;48.260;16.432;2023-04-07T01:54:24;99878.06;;;4.35;46.79
4022;BME280;2025;48.260;16.432;2023-04-07T01:56:52;99882.84;;;4.30;47.29
4022;BME280;2025;48.260;16.432;2023-04-07T01:59:19;99883.78;;;4.29;47.01
4022;BME280;2025;48.260;16.432;2023-04-07T02:01:46;99878.72;;;4.27;47.47
4022;BME280;2025;48.260;16.432;2023-04-07T02:04:18;99874.75;;;4.33;46.97
4022;BME280;2025;48.260;16.432;2023-04-07T02:06:51;99871.34;;;4.32;47.00
4022;BME280;2025;48.260;16.432;2023-04-07T02:09:20;99873.34;;;4.29;48.00
4022;BME280;2025;48.260;16.432;2023-04-07T02:11:48;99871.50;;;4.19;48.02
4022;BME280;2025;48.260;16.432;2023-04-07T02:14:17;99867.13;;;4.20;47.99
4022;BME280;2025;48.260;16.432;2023-04-07T02:16:47;99870.19;;;4.25;47.13
4022;BME280;2025;48.260;16.432;2023-04-07T02:19:14;99870.31;;;4.23;47.64
4022;BME280;2025;48.260;16.432;2023-04-07T02:21:43;99865.78;;;4.26;47.04
4022;BME280;2025;48.260;16.432;2023-04-07T02:24:12;99870.19;;;4.25;47.89
4022;BME280;2025;48.260;16.432;2023-04-07T02:26:41;99862.63;;;4.22;48.39
4022;BME280;2025;48.260;16.432;2023-04-07T02:29:08;99869.97;;;4.17;48.57
4022;BME280;2025;48.260;16.432;2023-04-07T02:31:35;99873.91;;;4.11;47.73
4022;BME280;2025;48.260;16.432;2023-04-07T02:34:02;99865.28;;;4.11;47.83
4022;BME280;2025;48.260;16.432;2023-04-07T02:36:29;99866.22;;;4.10;48.10
4022;BME280;2025;48.260;16.432;2023-04-07T02:38:57;99866.91;;;4.12;47.90
4022;BME280;2025;48.260;16.432;2023-04-07T02:41:25;99868.88;;;4.19;47.69
4022;BME280;2025;48.260;16.432;2023-04-07T02:43:52;99866.47;;;4.07;48.36
4022;BME280;2025;48.260;16.432;2023-04-07T02:46:19;99861.13;;;4.08;48.56
4022;BME280;2025;48.260;16.432;2023-04-07T02:48:46;99859.03;;;4.02;49.34
4022;BME280;2025;48.260;16.432;2023-04-07T02:51:13;99868.75;;;4.00;49.45
4022;BME280;2025;48.260;16.432;2023-04-07T02:53:40;99862.47;;;3.91;49.69
4022;BME280;2025;48.260;16.432;2023-04-07T02:56:07;99859.66;;;3.94;48.78
4022;BME280;2025;48.260;16.432;2023-04-07T02:58:35;99857.16;;;3.93;49.12
4022;BME280;2025;48.260;16.432;2023-04-07T03:01:02;99847.72;;;3.80;49.95
4022;BME280;2025;48.260;16.432;2023-04-07T03:03:29;99854.97;;;3.77;49.95
4022;BME280;2025;48.260;16.432;2023-04-07T03:05:56;99855.09;;;3.75;50.11
4022;BME280;2025;48.260;16.432;2023-04-07T03:08:23;99849.63;;;3.78;49.19
4022;BME280;2025;48.260;16.432;2023-04-07T03:10:50;99858.88;;;3.71;49.06
4022;BME280;2025;48.260;16.432;2023-04-07T03:13:17;99859.47;;;3.75;49.37
4022;BME280;2025;48.260;16.432;2023-04-07T03:15:46;99857.56;;;3.77;48.72
4022;BME280;2025;48.260;16.432;2023-04-07T03:18:13;99850.81;;;3.74;49.17
4022;BME280;2025;48.260;16.432;2023-04-07T03:20:40;99855.56;;;3.69;49.41
4022;BME280;2025;48.260;16.432;2023-04-07T03:23:08;99845.16;;;3.69;49.42
4022;BME280;2025;48.260;16.432;2023-04-07T03:25:35;99856.66;;;3.67;49.60
4022;BME280;2025;48.260;16.432;2023-04-07T03:28:03;99855.47;;;3.71;49.45
4022;BME280;2025;48.260;16.432;2023-04-07T03:30:30;99850.72;;;3.65;49.21
4022;BME280;2025;48.260;16.432;2023-04-07T03:32:58;99853.44;;;3.63;49.86
4022;BME280;2025;48.260;16.432;2023-04-07T03:35:25;99843.03;;;3.63;49.47
4022;BME280;2025;48.260;16.432;2023-04-07T03:37:52;99852.38;;;3.66;50.12
4022;BME280;2025;48.260;16.432;2023-04-07T03:40:19;99849.56;;;3.69;49.52
4022;BME280;2025;48.260;16.432;2023-04-07T03:42:47;99845.03;;;3.71;49.81
4022;BME280;2025;48.260;16.432;2023-04-07T03:45:14;99845.03;;;3.71;49.57
4022;BME280;2025;48.260;16.432;2023-04-07T03:47:41;99846.44;;;3.75;49.28
4022;BME280;2025;48.260;16.432;2023-04-07T03:50:10;99841.13;;;3.76;49.16
4022;BME280;2025;48.260;16.432;2023-04-07T03:52:37;99842.66;;;3.68;49.30
4022;BME280;2025;48.260;16.432;2023-04-07T03:55:05;99842.56;;;3.69;49.22
4022;BME280;2025;48.260;16.432;2023-04-07T03:57:32;99846.22;;;3.67;49.23
4022;BME280;2025;48.260;16.432;2023-04-07T03:59:59;99847.50;;;3.72;49.36
4022;BME280;2025;48.260;16.432;2023-04-07T04:02:26;99841.03;;;3.67;50.31
4022;BME280;2025;48.260;16.432;2023-04-07T04:04:53;99843.00;;;3.74;49.26
4022;BME280;2025;48.260;16.432;2023-04-07T04:07:22;99848.03;;;3.66;50.45
4022;BME280;2025;48.260;16.432;2023-04-07T04:09:50;99844.81;;;3.63;49.78
4022;BME280;2025;48.260;16.432;2023-04-07T04:12:17;99842.66;;;3.68;49.98
4022;BME280;2025;48.260;16.432;2023-04-07T04:14:44;99844.44;;;3.67;49.88
4022;BME280;2025;48.260;16.432;2023-04-07T04:17:11;99842.47;;;3.59;50.75
4022;BME280;2025;48.260;16.432;2023-04-07T04:19:38;99843.41;;;3.58;49.90
4022;BME280;2025;48.260;16.432;2023-04-07T04:22:05;99844.25;;;3.59;49.76
4022;BME280;2025;48.260;16.432;2023-04-07T04:24:34;99839.16;;;3.57;50.04
4022;BME280;2025;48.260;16.432;2023-04-07T04:27:01;99836.28;;;3.61;50.26
4022;BME280;2025;48.260;16.432;2023-04-07T04:29:27;99837.97;;;3.62;50.46
4022;BME280;2025;48.260;16.432;2023-04-07T04:31:54;99838.78;;;3.62;50.10
4022;BME280;2025;48.260;16.432;2023-04-07T04:34:21;99839.41;;;3.54;51.27
4022;BME280;2025;48.260;16.432;2023-04-07T04:36:48;99839.88;;;3.59;51.01
4022;BME280;2025;48.260;16.432;2023-04-07T04:39:15;99837.81;;;3.63;49.67
4022;BME280;2025;48.260;16.432;2023-04-07T04:41:44;99835.22;;;3.63;50.31
4022;BME280;2025;48.260;16.432;2023-04-07T04:44:11;99833.66;;;3.72;49.63
4022;BME280;2025;48.260;16.432;2023-04-07T04:46:38;99840.16;;;3.77;49.64
4022;BME280;2025;48.260;16.432;2023-04-07T04:49:05;99829.97;;;3.74;49.68
4022;BME280;2025;48.260;16.432;2023-04-07T04:51:32;99839.22;;;3.78;51.66
4022;BME280;2025;48.260;16.432;2023-04-07T04:53:59;99829.28;;;3.72;50.13
4022;BME280;2025;48.260;16.432;2023-04-07T04:56:28;99829.84;;;3.87;48.90
4022;BME280;2025;48.260;16.432;2023-04-07T04:58:56;99825.69;;;3.85;49.49
4022;BME280;2025;48.260;16.432;2023-04-07T05:01:23;99833.03;;;3.79;50.69
4022;BME280;2025;48.260;16.432;2023-04-07T05:03:50;99828.38;;;3.94;48.38
4022;BME280;2025;48.260;16.432;2023-04-07T05:06:17;99832.19;;;3.90;50.39
4022;BME280;2025;48.260;16.432;2023-04-07T05:08:44;99822.84;;;3.88;50.50
4022;BME280;2025;48.260;16.432;2023-04-07T05:11:11;99838.22;;;3.91;49.18
4022;BME280;2025;48.260;16.432;2023-04-07T05:13:38;99836.38;;;4.03;48.56
4022;BME280;2025;48.260;16.432;2023-04-07T05:16:07;99836.75;;;3.98;49.31
4022;BME280;2025;48.260;16.432;2023-04-07T05:18:33;99836.19;;;3.94;50.71
4022;BME280;2025;48.260;16.432;2023-04-07T05:21:00;99839.81;;;4.03;48.88
4022;BME280;2025;48.260;16.432;2023-04-07T05:23:27;99839.97;;;4.01;49.71
4022;BME280;2025;48.260;16.432;2023-04-07T05:25:54;99836.84;;;4.08;49.57
4022;BME280;2025;48.260;16.432;2023-04-07T05:28:21;99839.00;;;4.03;50.29
4022;BME280;2025;48.260;16.432;2023-04-07T05:30:49;99832.69;;;4.05;50.34
4022;BME280;2025;48.260;16.432;2023-04-07T05:33:17;99833.34;;;4.18;49.30
4022;BME280;2025;48.260;16.432;2023-04-07T05:35:45;99823.53;;;4.22;49.75
4022;BME280;2025;48.260;16.432;2023-04-07T05:38:12;99828.72;;;4.22;49.14
4022;BME280;2025;48.260;16.432;2023-04-07T05:40:41;99842.28;;;4.37;48.50
4022;BME280;2025;48.260;16.432;2023-04-07T05:43:08;99832.28;;;4.42;48.94
4022;BME280;2025;48.260;16.432;2023-04-07T05:45:35;99845.25;;;4.53;48.79
4022;BME280;2025;48.260;16.432;2023-04-07T05:48:02;99840.66;;;4.67;48.63
4022;BME280;2025;48.260;16.432;2023-04-07T05:50:30;99848.44;;;4.78;47.90
4022;BME280;2025;48.260;16.432;2023-04-07T05:52:57;99847.03;;;4.74;48.70
4022;BME280;2025;48.260;16.432;2023-04-07T05:55:24;99847.78;;;4.85;47.70
4022;BME280;2025;48.260;16.432;2023-04-07T05:57:51;99839.13;;;4.85;47.72
4022;BME280;2025;48.260;16.432;2023-04-07T06:00:19;99844.34;;;4.85;49.40
4022;BME280;2025;48.260;16.432;2023-04-07T06:02:46;99841.66;;;4.75;49.13
4022;BME280;2025;48.260;16.432;2023-04-07T06:05:13;99843.38;;;4.86;47.89
4022;BME280;2025;48.260;16.432;2023-04-07T06:07:42;99840.56;;;4.99;48.02
4022;BME280;2025;48.260;16.432;2023-04-07T06:10:09;99842.91;;;5.02;47.80
4022;BME280;2025;48.260;16.432;2023-04-07T06:12:35;99848.81;;;5.04;47.02
4022;BME280;2025;48.260;16.432;2023-04-07T06:15:03;99847.28;;;5.01;48.18
4022;BME280;2025;48.260;16.432;2023-04-07T06:17:30;99847.41;;;5.00;47.38
4022;BME280;2025;48.260;16.432;2023-04-07T06:19:57;99847.28;;;5.01;48.70
4022;BME280;2025;48.260;16.432;2023-04-07T06:22:24;99849.13;;;5.11;47.24
4022;BME280;2025;48.260;16.432;2023-04-07T06:24:52;99850.25;;;5.18;46.84
4022;BME280;2025;48.260;16.432;2023-04-07T06:27:20;99858.63;;;5.21;47.35
4022;BME280;2025;48.260;16.432;2023-04-07T06:29:47;99849.44;;;5.27;46.75
4022;BME280;2025;48.260;16.432;2023-04-07T06:32:14;99849.59;;;5.35;46.38
4022;BME280;2025;48.260;16.432;2023-04-07T06:34:41;99852.81;;;5.48;46.33
4022;BME280;2025;48.260;16.432;2023-04-07T06:37:08;99852.78;;;5.39;46.06
4022;BME280;2025;48.260;16.432;2023-04-07T06:39:35;99852.81;;;5.48;46.44
4022;BME280;2025;48.260;16.432;2023-04-07T06:42:04;99857.44;;;5.45;46.37
4022;BME280;2025;48.260;16.432;2023-04-07T06:44:31;99850.22;;;5.58;48.59
4022;BME280;2025;48.260;16.432;2023-04-07T06:46:58;99856.53;;;5.65;46.21
4022;BME280;2025;48.260;16.432;2023-04-07T06:49:25;99854.50;;;5.79;46.60
4022;BME280;2025;48.260;16.432;2023-04-07T06:51:52;99856.72;;;5.83;45.90
4022;BME280;2025;48.260;16.432;2023-04-07T06:54:19;99852.72;;;5.89;46.18
4022;BME280;2025;48.260;16.432;2023-04-07T06:56:46;99851.78;;;5.90;46.65
4022;BME280;2025;48.260;16.432;2023-04-07T06:59:14;99851.78;;;5.90;47.17
4022;BME280;2025;48.260;16.432;2023-04-07T07:01:41;99848.91;;;6.03;45.77
4022;BME280;2025;48.260;16.432;2023-04-07T07:04:08;99841.47;;;6.08;46.26
4022;BME280;2025;48.260;16.432;2023-04-07T07:06:35;99839.69;;;6.18;45.45
4022;BME280;2025;48.260;16.432;2023-04-07T07:09:02;99842.41;;;6.36;45.53
4022;BME280;2025;48.260;16.432;2023-04-07T07:11:29;99846.69;;;6.37;45.62
4022;BME280;2025;48.260;16.432;2023-04-07T07:13:56;99844.28;;;6.63;45.22
4022;BME280;2025;48.260;16.432;2023-04-07T07:16:25;99847.03;;;6.71;45.54
4022;BME280;2025;48.260;16.432;2023-04-07T07:18:53;99848.94;;;6.79;44.18
4022;BME280;2025;48.260;16.432;2023-04-07T07:21:20;99848.66;;;6.82;44.11
4022;BME280;2025;48.260;16.432;2023-04-07T07:23:47;99851.66;;;6.87;43.78
4022;BME280;2025;48.260;16.432;2023-04-07T07:26:14;99853.16;;;7.00;45.72
4022;BME280;2025;48.260;16.432;2023-04-07T07:28:41;99853.41;;;7.06;43.08
4022;BME280;2025;48.260;16.432;2023-04-07T07:31:09;99848.03;;;6.98;43.11
4022;BME280;2025;48.260;16.432;2023-04-07T07:33:39;99854.53;;;6.94;42.05
4022;BME280;2025;48.260;16.432;2023-04-07T07:36:07;99859.09;;;6.92;44.82
4022;BME280;2025;48.260;16.432;2023-04-07T07:38:34;99851.72;;;7.05;43.77
4022;BME280;2025;48.260;16.432;2023-04-07T07:41:01;99849.44;;;7.20;42.95
4022;BME280;2025;48.260;16.432;2023-04-07T07:43:28;99865.03;;;7.22;40.89
4022;BME280;2025;48.260;16.432;2023-04-07T07:45:55;99869.06;;;7.16;41.72
4022;BME280;2025;48.260;16.432;2023-04-07T07:48:22;99869.22;;;7.14;42.82
4022;BME280;2025;48.260;16.432;2023-04-07T07:50:50;99871.13;;;7.12;43.60
4022;BME280;2025;48.260;16.432;2023-04-07T07:53:18;99874.34;;;7.06;41.44
4022;BME280;2025;48.260;16.432;2023-04-07T07:55:45;99873.81;;;7.03;41.49
4022;BME280;2025;48.260;16.432;2023-04-07T07:58:12;99861.22;;;7.16;41.54
4022;BME280;2025;48.260;16.432;2023-04-07T08:00:39;99875.50;;;7.22;41.57
4022;BME280;2025;48.260;16.432;2023-04-07T08:03:06;99870.22;;;7.31;42.01
4022;BME280;2025;48.260;16.432;2023-04-07T08:05:33;99874.59;;;7.41;41.38
4022;BME280;2025;48.260;16.432;2023-04-07T08:08:02;99875.72;;;7.38;43.29
4022;BME280;2025;48.260;16.432;2023-04-07T08:10:29;99878.59;;;7.45;42.01
4022;BME280;2025;48.260;16.432;2023-04-07T08:12:56;99878.53;;;7.54;41.88
4022;BME280;2025;48.260;16.432;2023-04-07T08:15:23;99864.28;;;7.57;40.83
4022;BME280;2025;48.260;16.432;2023-04-07T08:17:50;99876.09;;;7.43;41.67
4022;BME280;2025;48.260;16.432;2023-04-07T08:20:17;99872.53;;;7.44;41.65
4022;BME280;2025;48.260;16.432;2023-04-07T08:22:44;99872.97;;;7.57;43.05
4022;BME280;2025;48.260;16.432;2023-04-07T08:25:12;99866.59;;;7.70;41.79
4022;BME280;2025;48.260;16.432;2023-04-07T08:27:39;99865.91;;;7.68;42.01
4022;BME280;2025;48.260;16.432;2023-04-07T08:30:06;99869.50;;;7.85;41.60
4022;BME280;2025;48.260;16.432;2023-04-07T08:32:34;99867.47;;;7.78;41.87
4022;BME280;2025;48.260;16.432;2023-04-07T08:35:02;99863.78;;;7.71;42.86
4022;BME280;2025;48.260;16.432;2023-04-07T08:37:29;99868.66;;;7.66;42.68
4022;BME280;2025;48.260;16.432;2023-04-07T08:39:56;99867.53;;;7.69;43.37
4022;BME280;2025;48.260;16.432;2023-04-07T08:42:27;99867.63;;;7.77;42.24
4022;BME280;2025;48.260;16.432;2023-04-07T08:44:55;99863.16;;;7.69;41.38
4022;BME280;2025;48.260;16.432;2023-04-07T08:47:24;99864.97;;;7.59;41.51
4022;BME280;2025;48.260;16.432;2023-04-07T08:49:52;99868.34;;;7.51;42.18
4022;BME280;2025;48.260;16.432;2023-04-07T08:52:22;99868.03;;;7.54;42.84
4022;BME280;2025;48.260;16.432;2023-04-07T08:54:54;99864.34;;;7.47;41.16
4022;BME280;2025;48.260;16.432;2023-04-07T08:57:23;99865.56;;;7.53;40.82
4022;BME280;2025;48.260;16.432;2023-04-07T08:59:51;99878.72;;;7.43;40.69
4022;BME280;2025;48.260;16.432;2023-04-07T09:02:19;99865.38;;;7.36;40.41
4022;BME280;2025;48.260;16.432;2023-04-07T09:04:46;99858.78;;;7.32;40.92
4022;BME280;2025;48.260;16.432;2023-04-07T09:07:13;99859.06;;;7.29;41.62
4022;BME280;2025;48.260;16.432;2023-04-07T09:09:40;99860.13;;;7.36;41.37
4022;BME280;2025;48.260;16.432;2023-04-07T09:12:07;99847.28;;;7.43;41.16
4022;BME280;2025;48.260;16.432;2023-04-07T09:14:34;99843.09;;;7.50;44.00
4022;BME280;2025;48.260;16.432;2023-04-07T09:17:03;99842.88;;;7.62;40.74
4022;BME280;2025;48.260;16.432;2023-04-07T09:19:30;99845.59;;;7.70;40.75
4022;BME280;2025;48.260;16.432;2023-04-07T09:21:58;99848.47;;;7.76;40.88
4022;BME280;2025;48.260;16.432;2023-04-07T09:24:26;99840.53;;;7.86;40.72
4022;BME280;2025;48.260;16.432;2023-04-07T09:27:11;99840.88;;;7.73;40.59
4022;BME280;2025;48.260;16.432;2023-04-07T09:29:41;99839.63;;;7.77;40.34
4022;BME280;2025;48.260;16.432;2023-04-07T09:32:10;99842.09;;;7.79;39.77
4022;BME280;2025;48.260;16.432;2023-04-07T09:34:39;99842.59;;;7.82;39.93
4022;BME280;2025;48.260;16.432;2023-04-07T09:37:07;99848.06;;;7.71;41.28
4022;BME280;2025;48.260;16.432;2023-04-07T09:39:48;99842.06;;;7.61;40.14
4022;BME280;2025;48.260;16.432;2023-04-07T09:42:15;99847.38;;;7.51;40.43
4022;BME280;2025;48.260;16.432;2023-04-07T09:44:43;99845.63;;;7.42;40.89
4022;BME280;2025;48.260;16.432;2023-04-07T09:47:11;99841.41;;;7.31;40.32
4022;BME280;2025;48.260;16.432;2023-04-07T09:49:48;99844.81;;;7.42;39.78
4022;BME280;2025;48.260;16.432;2023-04-07T09:52:17;99842.13;;;7.51;41.08
4022;BME280;2025;48.260;16.432;2023-04-07T09:54:45;99839.31;;;7.63;41.36
4022;BME280;2025;48.260;16.432;2023-04-07T09:57:12;99846.81;;;7.75;41.35
4022;BME280;2025;48.260;16.432;2023-04-07T09:59:41;99844.19;;;7.93;42.66
4022;BME280;2025;48.260;16.432;2023-04-07T10:02:11;99839.09;;;7.92;41.35
4022;BME280;2025;48.260;16.432;2023-04-07T10:04:38;99832.94;;;7.83;40.92
4022;BME280;2025;48.260;16.432;2023-04-07T10:07:06;99833.63;;;7.85;42.01
4022;BME280;2025;48.260;16.432;2023-04-07T10:09:32;99841.19;;;7.88;41.69
4022;BME280;2025;48.260;16.432;2023-04-07T10:11:59;99832.94;;;8.01;41.07
4022;BME280;2025;48.260;16.432;2023-04-07T10:14:29;99840.31;;;7.97;41.75
4022;BME280;2025;48.260;16.432;2023-04-07T10:16:56;99836.38;;;8.01;42.11
4022;BME280;2025;48.260;16.432;2023-04-07T10:19:28;99833.25;;;8.16;41.43
4022;BME280;2025;48.260;16.432;2023-04-07T10:21:57;99834.22;;;8.15;41.42
4022;BME280;2025;48.260;16.432;2023-04-07T10:24:36;99832.50;;;8.23;41.23
4022;BME280;2025;48.260;16.432;2023-04-07T10:27:15;99822.72;;;8.34;41.58
4022;BME280;2025;48.260;16.432;2023-04-07T10:29:45;99825.25;;;8.43;41.38
4022;BME280;2025;48.260;16.432;2023-04-07T10:32:14;99821.50;;;8.46;40.68
4022;BME280;2025;48.260;16.432;2023-04-07T10:35:01;99825.66;;;8.49;41.79
4022;BME280;2025;48.260;16.432;2023-04-07T10:37:28;99823.66;;;8.51;43.88
4022;BME280;2025;48.260;16.432;2023-04-07T10:40:28;99821.50;;;8.46;41.15
4022;BME280;2025;48.260;16.432;2023-04-07T10:42:57;99814.03;;;8.51;41.24
4022;BME280;2025;48.260;16.432;2023-04-07T10:45:54;99823.38;;;8.54;41.42
4022;BME280;2025;48.260;16.432;2023-04-07T10:48:24;99819.94;;;8.53;41.51
4022;BME280;2025;48.260;16.432;2023-04-07T10:51:14;99822.28;;;8.64;40.96
4022;BME280;2025;48.260;16.432;2023-04-07T10:57:13;99816.94;;;8.74;41.10
4022;BME280;2025;48.260;16.432;2023-04-07T11:00:12;99823.44;;;8.88;41.47
4022;BME280;2025;48.260;16.432;2023-04-07T11:02:32;99813.75;;;8.89;40.49
4022;BME280;2025;48.260;16.432;2023-04-07T11:05:00;99821.63;;;8.89;41.32
4022;BME280;2025;48.260;16.432;2023-04-07T11:07:47;99823.78;;;9.01;41.41
4022;BME280;2025;48.260;16.432;2023-04-07T11:10:15;99816.25;;;9.06;39.89
4022;BME280;2025;48.260;16.432;2023-04-07T11:12:44;99814.00;;;9.12;40.04
4022;BME280;2025;48.260;16.432;2023-04-07T11:15:23;99820.00;;;9.30;41.25
4022;BME280;2025;48.260;16.432;2023-04-07T11:18:05;99809.22;;;9.74;39.61
4022;BME280;2025;48.260;16.432;2023-04-07T11:20:40;99814.84;;;9.96;38.66
4022;BME280;2025;48.260;16.432;2023-04-07T11:23:08;99804.97;;;10.06;39.18
4022;BME280;2025;48.260;16.432;2023-04-07T11:25:36;99810.09;;;10.07;39.14
4022;BME280;2025;48.260;16.432;2023-04-07T11:28:03;99808.25;;;10.24;42.27
4022;BME280;2025;48.260;16.432;2023-04-07T11:30:31;99800.22;;;10.34;39.12
4022;BME280;2025;48.260;16.432;2023-04-07T11:32:58;99811.41;;;10.44;39.70
4022;BME280;2025;48.260;16.432;2023-04-07T11:35:25;99809.88;;;10.58;38.11
4022;BME280;2025;48.260;16.432;2023-04-07T11:37:57;99795.91;;;10.58;39.01
4022;BME280;2025;48.260;16.432;2023-04-07T11:40:33;99807.63;;;10.39;38.92
4022;BME280;2025;48.260;16.432;2023-04-07T11:43:01;99802.34;;;10.22;38.86
4022;BME280;2025;48.260;16.432;2023-04-07T11:45:29;99803.84;;;10.17;38.64
4022;BME280;2025;48.260;16.432;2023-04-07T11:47:55;99802.19;;;10.16;38.78
4022;BME280;2025;48.260;16.432;2023-04-07T11:50:39;99795.78;;;10.34;38.93
4022;BME280;2025;48.260;16.432;2023-04-07T11:53:06;99798.72;;;10.48;37.85
4022;BME280;2025;48.260;16.432;2023-04-07T11:55:34;99798.84;;;10.71;40.91
4022;BME280;2025;48.260;16.432;2023-04-07T11:58:05;99798.63;;;10.81;38.00
4022;BME280;2025;48.260;16.432;2023-04-07T12:00:52;99790.31;;;10.61;38.17
4022;BME280;2025;48.260;16.432;2023-04-07T12:03:19;99790.34;;;10.44;39.64
4022;BME280;2025;48.260;16.432;2023-04-07T12:05:46;99787.03;;;10.50;39.52
4022;BME280;2025;48.260;16.432;2023-04-07T12:08:13;99789.31;;;10.53;39.67
4022;BME280;2025;48.260;16.432;2023-04-07T12:10:42;99785.75;;;10.38;40.39
4022;BME280;2025;48.260;16.432;2023-04-07T12:13:09;99784.91;;;10.13;39.61
4022;BME280;2025;48.260;16.432;2023-04-07T12:15:36;99778.66;;;9.89;41.42
4022;BME280;2025;48.260;16.432;2023-04-07T12:18:03;99780.66;;;9.96;40.84
4022;BME280;2025;48.260;16.432;2023-04-07T12:20:30;99782.28;;;9.97;41.49
4022;BME280;2025;48.260;16.432;2023-04-07T12:22:57;99771.91;;;10.20;41.45
4022;BME280;2025;48.260;16.432;2023-04-07T12:25:25;99778.00;;;10.20;42.78
4022;BME280;2025;48.260;16.432;2023-04-07T12:27:54;99773.72;;;10.27;39.55
4022;BME280;2025;48.260;16.432;2023-04-07T12:30:21;99782.13;;;10.06;40.37
4022;BME280;2025;48.260;16.432;2023-04-07T12:32:48;99772.06;;;9.61;41.43
4022;BME280;2025;48.260;16.432;2023-04-07T12:35:15;99769.56;;;9.35;42.52
4022;BME280;2025;48.260;16.432;2023-04-07T12:37:42;99773.75;;;9.11;43.61
4022;BME280;2025;48.260;16.432;2023-04-07T12:40:09;99771.72;;;8.89;43.16
4022;BME280;2025;48.260;16.432;2023-04-07T12:42:36;99781.03;;;8.83;44.17
4022;BME280;2025;48.260;16.432;2023-04-07T12:45:06;99784.56;;;9.00;44.06
4022;BME280;2025;48.260;16.432;2023-04-07T12:47:33;99781.34;;;9.14;43.49
4022;BME280;2025;48.260;16.432;2023-04-07T12:50:00;99775.06;;;9.07;44.14
4022;BME280;2025;48.260;16.432;2023-04-07T12:52:27;99786.53;;;8.98;44.56
4022;BME280;2025;48.260;16.432;2023-04-07T12:54:54;99783.06;;;8.97;44.85
4022;BME280;2025;48.260;16.432;2023-04-07T12:57:21;99785.00;;;8.87;44.59
4022;BME280;2025;48.260;16.432;2023-04-07T12:59:48;99786.81;;;8.86;44.45
4022;BME280;2025;48.260;16.432;2023-04-07T13:02:17;99778.25;;;8.84;47.00
4022;BME280;2025;48.260;16.432;2023-04-07T13:04:45;99789.09;;;8.90;44.90
4022;BME280;2025;48.260;16.432;2023-04-07T13:07:12;99786.00;;;8.94;44.54
4022;BME280;2025;48.260;16.432;2023-04-07T13:09:39;99779.81;;;9.03;44.21
4022;BME280;2025;48.260;16.432;2023-04-07T13:12:08;99775.53;;;9.02;45.01
4022;BME280;2025;48.260;16.432;2023-04-07T13:14:37;99778.72;;;9.14;43.47
4022;BME280;2025;48.260;16.432;2023-04-07T13:17:04;99771.44;;;9.08;43.42
4022;BME280;2025;48.260;16.432;2023-04-07T13:19:33;99771.06;;;8.95;44.78
4022;BME280;2025;48.260;16.432;2023-04-07T13:22:00;99770.31;;;8.76;45.58
4022;BME280;2025;48.260;16.432;2023-04-07T13:24:27;99782.66;;;8.50;46.55
4022;BME280;2025;48.260;16.432;2023-04-07T13:26:54;99779.09;;;8.33;47.51
4022;BME280;2025;48.260;16.432;2023-04-07T13:29:22;99774.03;;;8.13;48.81
4022;BME280;2025;48.260;16.432;2023-04-07T13:31:49;99772.97;;;8.06;48.93
4022;BME280;2025;48.260;16.432;2023-04-07T13:34:16;99768.63;;;8.15;49.51